الصفحة الرئيسية
METAR-TAF:

METAR-TAF

مطار :

دييغو غارسيا, إقليم المحيط الهندي البريطاني

دائرة عرض: 07-18S, خط طول: 072-24E, ارتفاع: 1 متر

مراقبة الطقس الحالي

تاريخ ووقت الإصدار 58 دقيقة قبل الساعة 17:55UTC
ريح 6 عقدة من الجنوب
درجة الحرارة 26°درجة مئوية
الرطوبة 89%
ضغط 1013 hPa
الرؤية: 9000 متر
غيوم متفرقة على ارتفاع 1600 قدم
غيوم متفرقة على ارتفاع 5000 قدم
ملبد بالغيوم على ارتفاع 8000 قدم
غشاء

METAR: FJDG 141755Z 19006KT 9000 BR SCT016 SCT050 OVC080 26/24 A2992 RMK SLP129 60025 8/87/ T02550244 10258 20247 402910247 50000

زمن: 00:53 (18:53 UTC)

توقعات

تاريخ ووقت الإصدار 1ساعة و 53 دقيقة قبل الساعة 17:00UTC
التوقعات صالحة من14 الساعة 17 UTC إلى 15 الساعة 23 UTC
ريح 9 عقدة من الجنوب الغربي
الرؤية 10 كم أو أكثر
غيوم متفرقة على ارتفاع 1900 قدم
غيوم مفككة على ارتفاع 5000 قدم
غيوم مفككة على ارتفاع 8000 قدم

TAF: FJDG 141700Z 1417/1523 23009KT 9999 SCT019 BKN050 BKN080 QNH2983INS TX33/1505Z TN24/1512Z

أرصاد الطقس والتوقعات من أكثر من 4000 مطار (تقارير الطقس للمطار METAR والتنبؤ بالطقس بالمطارTAF).

المحطات المتاحة هي النقط الصفراء والحمراء على الخريطة.

حرك المؤشر فوق النقطة لمعرفة اسم المحطة.

ثم انقر لمعرفة أرصاد وتوقعات الطقس.

لتغيير الخارطة: اضغط على الأزرار الخضراء مع رمز الصليب الأسود للتكبير. على الزر الأخضر مع شرطة للتصغير، أو على الأسهم الخضراء للخرائط المجاورة.


METAR-TAF: